Aérodrome :
LOGIN :

S'inscrire | Disclaimer

   EN    FR    IT 

 










Légende :    VFR   VFR Marginal   IFR   IFR Intensif   IFR Très Intensif
Visi : 
Plafond : 
>= 8 km
>= 3000ft
5 à 8 km
1000 à 3000 ft
1500m à 5 km
500 à 1000 ft
800 à 1500m
200 à 500 ft
< 800m
< 200 ft
Symboles :   Orages  Brouillard  Fortes neiges  Fortes précipitations  Vent > 20 kt
SIGMETs :   Divers  Orages  Givrage  Turbulence  Onde Orograph.  Cendres Volcan.







- Altitude de l'aérodrome : 1302 ft
- Code IATA : GNB
- Voir les cartes d'approche


LFLS - Grenoble / St. Geoirs

DERNIER METAR :
  • 161930Z AUTO 31010KT CAVOK 24/12 Q1013

METARs EXPIRÉS :
  • 161900Z AUTO 33009KT 300V360 CAVOK 25/11 Q1012 TEMPO FEW030CB BKN070
  • 161830Z AUTO 33013KT CAVOK 26/10 Q1012 TEMPO FEW030CB BKN070
  • 161800Z AUTO 33013KT CAVOK 27/09 Q1012 TEMPO FEW030CB BKN070
  • 161730Z AUTO 33013KT 300V360 CAVOK 28/09 Q1011 TEMPO FEW030CB BKN070
  • 161700Z AUTO 33014KT CAVOK 29/10 Q1011 TEMPO FEW030CB BKN070

TAF TAF LFLS
Valide du 16 à 15h jusqu'au 17 à 15h UTC


161400Z 1615/1715 34010KT CAVOK
PROB40
TEMPO 1615/1617 VRB15G30KT 3000 TSRA BKN030CB
PROB40
TEMPO 1617/1622 FEW030CB BKN070
TEMPO 1622/1706 VRB02KT BKN070
ATIS : +33 4 76 65 55 89
Pas de NOTAMs connus pour ce terrain.
3 SIGMETs publiés pour la FIR Marseille (LFMM) :
 
Turbulence forte
LFMM SIGMET 26 VALID 162000/162200 LFPW
LFMM MARSEILLE FIR/UIR SEV TURB FCST WI N4230 E00230 - N4315 E00230 - N4430 E00400 - N4315 E00345 - N4215 E00530 - N4200 E00430 - N4215 E00300 - N4230 E00230 SFC/FL060 STNR NC=
Orages noyés dans la masse
LFMM SIGMET 25 VALID 161800/162000 LFPW
LFMM MARSEILLE FIR/UIR EMBD TS FCST WI N4345 E00730 - N4315 E00930 - N4145 E00930 - N4300 E00700 - N4345 E00730 TOP FL380 MOV E 20KT NC=
Turbulence forte
LFMM SIGMET 22 VALID 161600/162000 LFPW
LFMM MARSEILLE FIR/UIR SEV TURB FCST WI N4130 E00430 - N4200 E00430 - N4215 E00245 - N4230 E00230 - N4315 E00245 - N4400 E00315 - N4145 E00600 - N4130 E00430 SFC/FL060 STNR NC=



MET'MAP, la Météo Aéronautique d'un coup d'oeil ! - Copyright ORBIFLY Décembre 2007 - Disclaimer

ORBIFLY MET'MAP TEAM :

Programmation & Développement : Alexandra Zaïnal
Conception & Développement : Baudouin d'Aumeries
Co-Programmation & Développement : Marc-Olivier Méhu
Soutien technique & logistique : Manuel Goepfert

Contact : metmap@orbifly.com




SOURCES & CREDITS :

   NOAA